Timeline UpdatesTrip UpdatesNews PostsPvt PostsTravel TipsAdmin PostsConv PostsFollowed PostsChat RequestsBlog PostsPNR Posts

Disclaimer
Search
 
 
Fri Apr 25, 2014 00:22:22 ISTHomeTrainsΣChainsAtlasPNRForumGalleryNewsFAQTripsMembersLoginFeedback
No Recent News for this Train
Other Trains in the News **new
Latest...
.
Wed Jan 15, 2014 (04:37PM)
⇐ Return Journey: Train# 51613

51614/Damoh Kota Passenger (UnReserved)

Jan 15 2014 (4:37PM)
Change Departure Station:
Change Arrival Station:
Post a Train Travel TipPost a Train Travel Tip **new
Post a Comment/Question/Picture/VideoPost a Comment/Question/Picture/Video
Pantry/Catering
✕ NO Pantry Car
✕ NO Catering
RSA - Rake Sharing
51611/51612 , 51613/51614
Rake/Coach Composition
Loco,SLR,UR,UR,UR,UR,UR,UR,UR,UR,SLR; SLR-2;UR-8;Total Number of Coach:10;
Loco
News    PNR    Forum    Time-Table    Availability    Fare Chart    Map    Arr/Dep History    Trips    Gallery    ΣChains    X/O    Timeline    
Travel Time: 6h 45m    16 halts    Distance: 198 km    Avg Speed: 29 km/hr
Type: Passenger
Zone: WCR/West Central
Departs @ 00:05 (Avg 44m late)
Platform# ???
SMTWTFS
Pagara/PGA 
Arrives @ 06:50 (Avg 2m late)
Platform# ???
SMTWTFS
Kota Junction/KOTA 

16 halts. 23 intermediate Stations between Pagara and Kota Junction

Show ALL intermediate Stations  Show Old Time-Table

#CodeStation NameX/OArrivesAvgDepartsAvgHaltPFDay#KmSpeedElevZoneAddress
1DMODamoh (2)  -17:20+5--1-257.274365mWCRDamoh, Madhya Pradesh
2ANAAslana  17:30+1417:31+161m--1-244.975367mWCRDamoh, Madhya Pradesh
3PHAPathariaX  17:42+1817:44+192m--1-231.164382mWCRState Highway 14, Madhya Pradesh
4GAJGaneshGanj  17:56+2417:58+262m--1-218.241419mWCRPatharia, Madhya Pradesh
5DGDDangidhar (2)  18:08+2418:09+241m21-211.446434mWCRState Highway 14, Madhya Pradesh
6GWGirwar  18:18+2218:19+241m--1-204.455472mWCRSagar, Madhya Pradesh
7LDALidhora Khurd  18:30+2318:31+291m--1-194.443496mWCRSagar, Madhya Pradesh
8MKRNMakronia  18:41+2818:42+351m--1-187.233527mWCRRajakhedi, Madhya Pradesh
9SGOSaugor (2)X  18:55+2919:00+285m--1-180.133519mWCRMP 470001Madhya pradesh, Madhya Pradesh
10RTZRatona  19:13+2819:14+291m--1-172.956507mWCRNational Highway 86, Madhya Pradesh
11NOINariaoliXO  19:26+2819:27+331m--1-161.850485mWCRSagar, Madhya Pradesh
12ISHIsarwara  19:36+3219:37+341m--1-154.355487mWCRSagar, Madhya Pradesh
13JRKJeruwa KheraX  19:47+3219:48+361m--1-145.249498mWCRJeruwakhera, Madhya Pradesh
14SMRRSumreri  19:59+3420:00+361m--1-136.141443mWCRKhurai, Madhya Pradesh
15KYEKhurai (5)X  20:13+3120:15+312m--1-127.351439mWCRKhurai, Madhya Pradesh
16BJQBaghora (2)X  20:29+2820:30+291m11-115.512420mWCRSagar, Madhya Pradesh
17BINABina Junction (5)  21:20+1721:40+3420m51-105.442414mWCRJn Pt - KATNI/GUNA/ BPL/JHS, Madhya Pradesh
18MDVKMahadeokhediX  21:51+4521:52+461m--1-97.738423mWCRBina, Madhya Pradesh
19SRKISemarkheri  22:00+4522:01+461m--1-92.655412mWCRBina, Madhya Pradesh
20KXBKanjiyaX  22:10+4522:11+451m--1-84.423390mWCRMungaoli, Madhya Pradesh
21MNVMungaoli (2)  22:32+3522:33+391m--1-76.4-403mWCRAshoknagar, Madhya Pradesh
22GVBGuneru Bamori (2)X  22:35+4322:36+441m--1-68.054427mWCRAshoknagar, Madhya Pradesh
23PIAPipraigaon (3)  22:48+4222:49+431m11-57.170451mWCRAshoknagar, Madhya Pradesh
24RAWSRahatwas  22:57-22:58-1m--1-47.830458mWCRAshoknagar, Madhya Pradesh
25ORROrr  23:07+4223:08+421m--1-43.436450mWCRAshoknagar, Madhya Pradesh
26HPKAHinotia Pipalkhera  23:14+4323:15+431m--1-39.868460mWCRAshoknagar, Madhya Pradesh
27ASKNAshok Nagar (2)  23:23+4023:24+411m--1-30.744502mWCRAshoknagar, Madhya Pradesh
28RIKARatikheda  23:34+4323:35+441m--1-23.554526mWCRGuna, Madhya Pradesh
29SHDRShadhoragaon  23:44+4323:45+441m--1-15.454504mWCRGuna, Madhya Pradesh
30PIGTPilighat  23:55+4423:56+441m--1-6.448471mWCRGUNA Rd, Madhya Pradesh
31PGA»Pagara»  00:04+4300:05+441m--20.042494mWCRGuna, Madhya Pradesh
32MABNMaban  00:15+2800:16+281m--27.17501mWCRState Highway 23, Madhya Pradesh
33GUNAGuna Junction (3)  01:15+801:25+910m1213.534477mWCRJn Point Indore/Gwalior/Bina/Kota, Madhya Pradesh
34MUGAMahugara  01:38+1401:39+151m--220.951501mWCRRuthiyai, Madhya Pradesh
35RTARuthiyai Junction (2)  01:55+1402:00+155m--234.471414mWCRRuthiyai, Madhya Pradesh
36DHRDharnaoda (1)X  02:09+4502:10+461m1245.171392mWCRDharnawada, Rajasthan
37BLOBhulon  02:24+5602:25+591m--261.676367mWCRKota, Rajasthan
38CAGChhabra Gugor  02:34+1:0002:35+1:071m--273.039342mWCRBaran, Rajasthan
39SYLSalpuraX  02:59+1:0503:00+1:091m--288.544311mWCRKawari, Rajasthan
40ATRUAtru (1)  03:19+1:0403:20+1:061m12102.572288mWCRAtru, Rajasthan
41CJWChajawaX  03:34+1:0603:35+1:061m--2119.337275mWCRBaren, Rajasthan
42BAZBaran  03:55+1:0104:00+1:025m--2131.754261mWCRBaran, Rajasthan
43BJKBijoraX  04:14+1:0604:15+1:071m--2144.323260mWCRAntah, Rajasthan
44ATHAntah  04:39+5604:40+581m--2153.348246mWCRAntah, Rajasthan
45BONBhonra  04:59+5005:00+511m--2168.536249mWCRKota, Rajasthan
46SKPASri Kalyanpura05:09+4705:10+481m--2173.822263mWCRSeemalya, Rajasthan
47DXDDigod  05:32+2305:33+191m--2181.913255mWCRKota, Rajasthan
48KOTA•Kota Junction (5)•  06:50+2---2198.0-256mWCRKota, Rajasthan
Scroll to Top
Scroll to Bottom